EDT,Max TemperatureF,Mean TemperatureF,Min TemperatureF,Max Dew PointF,MeanDew PointF,Min DewpointF,Max Humidity, Mean Humidity, Min Humidity, Max Sea Level PressureIn, Mean Sea Level PressureIn, Min Sea Level PressureIn, Max VisibilityMiles, Mean VisibilityMiles, Min VisibilityMiles, Max Wind SpeedMPH, Mean Wind SpeedMPH, Max Gust SpeedMPH,PrecipitationIn, CloudCover, Events, WindDirDegrees
2012-10-1,68,60,55,56,53,49,93,76,57,29.94,29.82,29.75,10,10,10,28,14,39,0.00,1,,235
2012-10-2,72,62,52,63,57,51,100,84,53,30.07,30.02,29.95,10,10,10,10,4,,0.00,4,Rain,219
2012-10-3,66,63,60,66,63,57,100,99,88,30.12,30.07,30.02,10,2,0,8,3,,0.01,8,Fog-Rain,99
2012-10-4,64,62,59,64,61,59,100,100,100,30.12,30.07,30.02,10,2,0,12,5,,0.00,8,Fog-Rain,349
2012-10-5,69,64,59,63,61,58,100,95,81,30.03,29.99,29.93,10,7,2,9,3,,0.00,5,Rain,214
2012-10-6,72,64,57,65,60,49,100,93,74,29.93,29.87,29.77,10,6,0,17,4,26,0.00,2,Fog-Rain,222
2012-10-7,60,52,48,50,46,41,100,80,58,30.06,30.02,29.92,10,9,4,9,5,17,0.18,4,Rain,329
2012-10-8,55,50,44,49,46,44,100,86,67,30.30,30.17,30.05,10,10,5,10,5,20,0.02,5,Rain,323
2012-10-9,57,53,51,54,52,49,100,95,88,30.29,30.19,30.11,10,7,2,15,8,21,0.19,8,Rain,46
2012-10-10,64,60,55,63,58,52,100,93,81,30.10,29.91,29.73,10,10,3,15,7,22,0.02,7,Rain,100
2012-10-11,59,50,41,50,38,35,93,64,42,30.16,30.04,29.81,10,10,10,14,10,23,0.00,0,,269
2012-10-12,61,50,39,48,39,24,96,68,44,30.28,30.09,30.02,10,10,10,20,7,33,0.00,2,Rain,296
2012-10-13,51,44,36,38,30,25,93,57,36,30.46,30.40,30.33,10,10,10,14,8,22,0.00,0,,278
2012-10-14,64,57,50,60,53,39,90,77,64,30.32,30.13,30.01,10,10,10,28,15,39,0.00,4,Rain,215
2012-10-15,69,65,62,64,62,60,100,92,84,29.96,29.76,29.62,10,10,8,16,13,28,0.01,4,Rain,203
2012-10-16,63,54,43,63,49,37,100,79,47,29.86,29.64,29.54,10,10,7,14,7,21,0.10,5,Rain,277
2012-10-17,57,48,41,44,40,37,93,78,59,30.01,29.94,29.86,10,10,10,9,4,,0.00,0,,343
2012-10-18,61,48,37,54,47,36,97,86,64,30.11,30.08,30.02,10,10,10,9,2,,0.00,0,,136
2012-10-19,68,61,54,67,60,53,100,90,72,30.06,29.91,29.78,10,9,5,15,8,30,0.08,6,Rain-Thunderstorm,134
2012-10-20,66,62,59,66,63,53,100,96,81,29.79,29.70,29.65,10,8,1,16,9,23,0.10,6,Rain-Thunderstorm,200
2012-10-21,63,56,50,50,44,41,80,66,45,29.89,29.84,29.77,10,10,10,15,7,21,0.00,1,,269
2012-10-22,66,58,51,47,43,42,71,60,43,29.98,29.91,29.88,10,10,10,14,8,26,0.00,0,,292
2012-10-23,61,55,50,50,46,42,93,74,57,30.09,30.04,29.98,10,10,10,13,5,,0.00,1,Rain,327
2012-10-24,55,48,39,52,46,39,100,79,69,30.21,30.15,30.10,10,10,10,12,4,,0.00,7,,34
2012-10-25,60,48,35,45,40,34,97,80,53,30.30,30.26,30.22,10,10,10,6,1,,0.00,0,,148
2012-10-26,62,49,37,46,41,36,97,80,41,30.26,30.20,30.14,10,10,10,8,1,,0.00,0,,170
2012-10-27,64,52,41,52,46,39,97,81,48,30.12,30.03,29.97,10,10,10,8,3,,0.00,1,,35
2012-10-28,57,55,53,53,51,49,97,86,77,29.97,29.85,29.66,10,9,4,20,12,29,0.02,8,Rain,55
2012-10-29,64,60,55,63,57,53,97,94,87,29.66,29.43,29.09,10,6,3,29,20,59,0.10,8,Rain,61
2012-10-30,64,62,60,59,58,57,94,85,77,29.58,29.54,29.51,10,9,2,18,14,26,0.00,6,Rain-Thunderstorm,138
2012-10-31,59,57,55,55,53,50,94,84,77,29.58,29.53,29.49,10,10,10,12,10,,0.00,5,Rain,229